sensor_id;sensor_type;location;lat;lon;timestamp;pressure;altitude;pressure_sealevel;temperature;humidity
15487;BME280;7845;53.698;10.078;2023-02-26T00:01:02;100610.72;;;1.95;100.00
15487;BME280;7845;53.698;10.078;2023-02-26T00:03:29;100621.13;;;1.99;100.00
15487;BME280;7845;53.698;10.078;2023-02-26T00:05:59;100619.50;;;2.03;100.00
15487;BME280;7845;53.698;10.078;2023-02-26T00:08:26;100622.16;;;2.06;100.00
15487;BME280;7845;53.698;10.078;2023-02-26T00:10:51;100633.28;;;2.05;100.00
15487;BME280;7845;53.698;10.078;2023-02-26T00:13:19;100639.28;;;2.05;100.00
15487;BME280;7845;53.698;10.078;2023-02-26T00:15:44;100647.75;;;2.01;100.00
15487;BME280;7845;53.698;10.078;2023-02-26T00:18:14;100646.78;;;1.96;100.00
15487;BME280;7845;53.698;10.078;2023-02-26T00:20:40;100658.13;;;2.03;100.00
15487;BME280;7845;53.698;10.078;2023-02-26T00:23:11;100654.53;;;1.98;100.00
15487;BME280;7845;53.698;10.078;2023-02-26T00:25:38;100667.31;;;1.95;100.00
15487;BME280;7845;53.698;10.078;2023-02-26T00:28:04;100681.00;;;1.92;100.00
15487;BME280;7845;53.698;10.078;2023-02-26T00:30:29;100679.38;;;1.96;100.00
15487;BME280;7845;53.698;10.078;2023-02-26T00:32:56;100690.97;;;1.80;100.00
15487;BME280;7845;53.698;10.078;2023-02-26T00:35:23;100690.16;;;1.81;100.00
15487;BME280;7845;53.698;10.078;2023-02-26T00:38:02;100701.41;;;1.86;100.00
15487;BME280;7845;53.698;10.078;2023-02-26T00:43:06;100715.88;;;1.81;100.00
15487;BME280;7845;53.698;10.078;2023-02-26T00:45:33;100722.13;;;1.91;100.00
15487;BME280;7845;53.698;10.078;2023-02-26T00:48:25;100723.22;;;2.00;100.00
15487;BME280;7845;53.698;10.078;2023-02-26T00:56:04;100740.09;;;2.22;100.00
15487;BME280;7845;53.698;10.078;2023-02-26T00:58:30;100749.72;;;2.29;100.00
15487;BME280;7845;53.698;10.078;2023-02-26T01:00:55;100759.97;;;2.28;100.00
15487;BME280;7845;53.698;10.078;2023-02-26T01:03:21;100756.56;;;2.29;100.00
15487;BME280;7845;53.698;10.078;2023-02-26T01:05:46;100774.84;;;2.39;100.00
15487;BME280;7845;53.698;10.078;2023-02-26T01:10:46;100789.22;;;2.30;100.00
15487;BME280;7845;53.698;10.078;2023-02-26T01:13:12;100785.94;;;2.37;100.00
15487;BME280;7845;53.698;10.078;2023-02-26T01:15:41;100801.41;;;2.37;100.00
15487;BME280;7845;53.698;10.078;2023-02-26T01:18:13;100812.97;;;2.19;100.00
15487;BME280;7845;53.698;10.078;2023-02-26T01:20:50;100824.56;;;2.35;100.00
15487;BME280;7845;53.698;10.078;2023-02-26T01:23:22;100830.59;;;2.36;100.00
15487;BME280;7845;53.698;10.078;2023-02-26T01:25:57;100844.28;;;2.35;100.00
15487;BME280;7845;53.698;10.078;2023-02-26T01:28:24;100839.22;;;2.39;100.00
15487;BME280;7845;53.698;10.078;2023-02-26T01:30:52;100851.22;;;2.37;100.00
15487;BME280;7845;53.698;10.078;2023-02-26T01:33:28;100853.78;;;2.37;100.00
15487;BME280;7845;53.698;10.078;2023-02-26T01:36:00;100859.75;;;2.36;100.00
15487;BME280;7845;53.698;10.078;2023-02-26T01:38:54;100869.03;;;2.30;100.00
15487;BME280;7845;53.698;10.078;2023-02-26T01:41:32;100871.47;;;2.25;100.00
15487;BME280;7845;53.698;10.078;2023-02-26T01:49:29;100888.38;;;2.15;100.00
15487;BME280;7845;53.698;10.078;2023-02-26T01:52:00;100883.91;;;2.08;100.00
15487;BME280;7845;53.698;10.078;2023-02-26T01:54:37;100890.56;;;2.02;100.00
15487;BME280;7845;53.698;10.078;2023-02-26T01:57:29;100887.09;;;2.00;100.00
15487;BME280;7845;53.698;10.078;2023-02-26T01:59:54;100888.53;;;1.90;100.00
15487;BME280;7845;53.698;10.078;2023-02-26T02:02:21;100895.41;;;1.91;100.00
15487;BME280;7845;53.698;10.078;2023-02-26T02:04:49;100902.19;;;1.88;100.00
15487;BME280;7845;53.698;10.078;2023-02-26T02:07:15;100901.16;;;1.83;100.00
15487;BME280;7845;53.698;10.078;2023-02-26T02:09:41;100910.41;;;1.76;100.00
15487;BME280;7845;53.698;10.078;2023-02-26T02:23:38;100921.00;;;1.58;100.00
15487;BME280;7845;53.698;10.078;2023-02-26T02:32:17;100926.94;;;1.56;100.00
15487;BME280;7845;53.698;10.078;2023-02-26T02:34:51;100925.09;;;1.52;100.00
15487;BME280;7845;53.698;10.078;2023-02-26T02:37:28;100933.63;;;1.51;100.00
15487;BME280;7845;53.698;10.078;2023-02-26T02:42:36;100926.81;;;1.51;100.00
15487;BME280;7845;53.698;10.078;2023-02-26T02:45:10;100931.84;;;1.48;100.00
15487;BME280;7845;53.698;10.078;2023-02-26T02:47:42;100941.25;;;1.48;100.00
15487;BME280;7845;53.698;10.078;2023-02-26T02:50:13;100935.91;;;1.42;100.00
15487;BME280;7845;53.698;10.078;2023-02-26T02:52:44;100937.09;;;1.51;100.00
15487;BME280;7845;53.698;10.078;2023-02-26T02:55:23;100944.81;;;1.51;100.00
15487;BME280;7845;53.698;10.078;2023-02-26T02:58:02;100941.97;;;1.44;100.00
15487;BME280;7845;53.698;10.078;2023-02-26T03:00:31;100949.06;;;1.51;100.00
15487;BME280;7845;53.698;10.078;2023-02-26T03:03:16;100944.84;;;1.53;100.00
15487;BME280;7845;53.698;10.078;2023-02-26T03:05:44;100957.78;;;1.56;100.00
15487;BME280;7845;53.698;10.078;2023-02-26T03:08:16;100962.59;;;1.45;100.00
15487;BME280;7845;53.698;10.078;2023-02-26T03:10:43;100958.34;;;1.46;100.00
15487;BME280;7845;53.698;10.078;2023-02-26T03:13:15;100963.19;;;1.37;100.00
15487;BME280;7845;53.698;10.078;2023-02-26T03:15:51;100968.53;;;1.43;100.00
15487;BME280;7845;53.698;10.078;2023-02-26T03:18:42;100971.13;;;1.44;100.00
15487;BME280;7845;53.698;10.078;2023-02-26T03:23:52;100978.84;;;1.44;100.00
15487;BME280;7845;53.698;10.078;2023-02-26T03:26:25;100979.69;;;1.43;100.00
15487;BME280;7845;53.698;10.078;2023-02-26T03:31:36;100994.19;;;1.41;100.00
15487;BME280;7845;53.698;10.078;2023-02-26T03:34:22;101000.91;;;1.38;100.00
15487;BME280;7845;53.698;10.078;2023-02-26T03:39:41;101013.56;;;1.32;100.00
15487;BME280;7845;53.698;10.078;2023-02-26T03:42:27;101020.34;;;1.28;100.00
15487;BME280;7845;53.698;10.078;2023-02-26T03:45:11;101017.75;;;1.28;100.00
15487;BME280;7845;53.698;10.078;2023-02-26T03:47:41;101019.59;;;1.32;100.00
15487;BME280;7845;53.698;10.078;2023-02-26T03:50:16;101025.63;;;1.33;100.00
15487;BME280;7845;53.698;10.078;2023-02-26T03:52:46;101023.84;;;1.32;100.00
15487;BME280;7845;53.698;10.078;2023-02-26T03:55:22;101023.84;;;1.32;100.00
15487;BME280;7845;53.698;10.078;2023-02-26T03:57:50;101033.41;;;1.34;100.00
15487;BME280;7845;53.698;10.078;2023-02-26T04:00:17;101029.84;;;1.31;100.00
15487;BME280;7845;53.698;10.078;2023-02-26T04:03:03;101032.34;;;1.29;100.00
15487;BME280;7845;53.698;10.078;2023-02-26T04:05:34;101033.19;;;1.28;100.00
15487;BME280;7845;53.698;10.078;2023-02-26T04:08:04;101040.53;;;1.18;100.00
15487;BME280;7845;53.698;10.078;2023-02-26T04:10:39;101047.25;;;1.14;100.00
15487;BME280;7845;53.698;10.078;2023-02-26T04:13:06;101043.63;;;1.07;100.00
15487;BME280;7845;53.698;10.078;2023-02-26T04:15:32;101045.13;;;1.02;100.00
15487;BME280;7845;53.698;10.078;2023-02-26T04:17:57;101051.03;;;1.00;100.00
15487;BME280;7845;53.698;10.078;2023-02-26T04:20:22;101055.31;;;0.99;100.00
15487;BME280;7845;53.698;10.078;2023-02-26T04:22:48;101053.41;;;0.94;100.00
15487;BME280;7845;53.698;10.078;2023-02-26T04:25:13;101058.38;;;0.89;100.00
15487;BME280;7845;53.698;10.078;2023-02-26T04:27:39;101059.88;;;0.83;100.00
15487;BME280;7845;53.698;10.078;2023-02-26T04:30:06;101059.13;;;0.87;100.00
15487;BME280;7845;53.698;10.078;2023-02-26T04:32:31;101073.69;;;0.86;100.00
15487;BME280;7845;53.698;10.078;2023-02-26T04:34:57;101067.56;;;0.83;100.00
15487;BME280;7845;53.698;10.078;2023-02-26T04:37:22;101069.28;;;0.84;100.00
15487;BME280;7845;53.698;10.078;2023-02-26T04:39:49;101071.94;;;0.85;100.00
15487;BME280;7845;53.698;10.078;2023-02-26T04:42:14;101083.97;;;0.86;100.00
15487;BME280;7845;53.698;10.078;2023-02-26T04:44:51;101085.66;;;0.86;100.00
15487;BME280;7845;53.698;10.078;2023-02-26T04:47:18;101100.19;;;0.85;100.00
15487;BME280;7845;53.698;10.078;2023-02-26T04:49:43;101102.00;;;0.88;100.00
15487;BME280;7845;53.698;10.078;2023-02-26T04:52:09;101099.38;;;0.86;100.00
15487;BME280;7845;53.698;10.078;2023-02-26T04:54:35;101107.03;;;0.85;100.00
15487;BME280;7845;53.698;10.078;2023-02-26T04:57:02;101116.31;;;0.81;100.00
15487;BME280;7845;53.698;10.078;2023-02-26T04:59:28;101108.72;;;0.84;100.00
15487;BME280;7845;53.698;10.078;2023-02-26T05:01:53;101116.38;;;0.83;100.00
15487;BME280;7845;53.698;10.078;2023-02-26T05:04:18;101121.50;;;0.83;100.00
15487;BME280;7845;53.698;10.078;2023-02-26T05:06:44;101116.38;;;0.83;100.00
15487;BME280;7845;53.698;10.078;2023-02-26T05:09:10;101124.78;;;0.79;100.00
15487;BME280;7845;53.698;10.078;2023-02-26T05:11:35;101128.13;;;0.76;100.00
15487;BME280;7845;53.698;10.078;2023-02-26T05:14:01;101130.41;;;0.69;100.00
15487;BME280;7845;53.698;10.078;2023-02-26T05:16:26;101140.47;;;0.63;100.00
15487;BME280;7845;53.698;10.078;2023-02-26T05:18:51;101146.63;;;0.68;100.00
15487;BME280;7845;53.698;10.078;2023-02-26T05:21:18;101160.16;;;0.64;100.00
15487;BME280;7845;53.698;10.078;2023-02-26T05:23:46;101165.13;;;0.59;100.00
15487;BME280;7845;53.698;10.078;2023-02-26T05:26:11;101173.06;;;0.65;100.00
15487;BME280;7845;53.698;10.078;2023-02-26T05:28:36;101172.06;;;0.62;100.00
15487;BME280;7845;53.698;10.078;2023-02-26T05:31:02;101184.00;;;0.60;100.00
15487;BME280;7845;53.698;10.078;2023-02-26T05:33:27;101182.47;;;0.65;100.00
15487;BME280;7845;53.698;10.078;2023-02-26T05:35:53;101185.03;;;0.65;100.00
15487;BME280;7845;53.698;10.078;2023-02-26T05:38:18;101193.16;;;0.53;100.00
15487;BME280;7845;53.698;10.078;2023-02-26T05:40:44;101197.31;;;0.51;100.00
15487;BME280;7845;53.698;10.078;2023-02-26T05:43:11;101197.53;;;0.55;100.00
15487;BME280;7845;53.698;10.078;2023-02-26T05:45:36;101204.06;;;0.47;100.00
15487;BME280;7845;53.698;10.078;2023-02-26T05:48:03;101209.06;;;0.44;100.00
15487;BME280;7845;53.698;10.078;2023-02-26T05:50:28;101202.97;;;0.42;100.00
15487;BME280;7845;53.698;10.078;2023-02-26T05:52:55;101214.13;;;0.43;100.00
15487;BME280;7845;53.698;10.078;2023-02-26T05:55:20;101212.19;;;0.37;100.00
15487;BME280;7845;53.698;10.078;2023-02-26T05:57:45;101213.88;;;0.37;100.00
15487;BME280;7845;53.698;10.078;2023-02-26T06:00:12;101211.56;;;0.43;100.00
15487;BME280;7845;53.698;10.078;2023-02-26T06:02:38;101209.75;;;0.40;100.00
15487;BME280;7845;53.698;10.078;2023-02-26T06:05:04;101211.31;;;0.37;100.00
15487;BME280;7845;53.698;10.078;2023-02-26T06:07:30;101208.81;;;0.38;100.00
15487;BME280;7845;53.698;10.078;2023-02-26T06:09:56;101207.31;;;0.43;100.00
15487;BME280;7845;53.698;10.078;2023-02-26T06:12:21;101213.97;;;0.38;100.00
15487;BME280;7845;53.698;10.078;2023-02-26T06:14:47;101208.81;;;0.38;100.00
15487;BME280;7845;53.698;10.078;2023-02-26T06:17:12;101207.06;;;0.37;100.00
15487;BME280;7845;53.698;10.078;2023-02-26T06:19:37;101211.50;;;0.41;100.00
15487;BME280;7845;53.698;10.078;2023-02-26T06:22:03;101203.63;;;0.37;100.00
15487;BME280;7845;53.698;10.078;2023-02-26T06:24:28;101214.66;;;0.34;100.00
15487;BME280;7845;53.698;10.078;2023-02-26T06:26:53;101211.31;;;0.37;100.00
15487;BME280;7845;53.698;10.078;2023-02-26T06:29:19;101221.34;;;0.31;100.00
15487;BME280;7845;53.698;10.078;2023-02-26T06:31:45;101215.81;;;0.22;100.00
15487;BME280;7845;53.698;10.078;2023-02-26T06:34:13;101211.50;;;0.41;100.00
15487;BME280;7845;53.698;10.078;2023-02-26T06:36:38;101218.94;;;0.56;100.00
15487;BME280;7845;53.698;10.078;2023-02-26T06:39:04;101216.50;;;0.59;100.00
15487;BME280;7845;53.698;10.078;2023-02-26T06:41:29;101213.41;;;0.68;100.00
15487;BME280;7845;53.698;10.078;2023-02-26T06:43:55;101220.75;;;0.81;100.00
15487;BME280;7845;53.698;10.078;2023-02-26T06:46:22;101227.50;;;0.77;100.00
15487;BME280;7845;53.698;10.078;2023-02-26T06:48:47;101234.03;;;0.91;100.00
15487;BME280;7845;53.698;10.078;2023-02-26T06:51:12;101236.59;;;0.91;100.00
15487;BME280;7845;53.698;10.078;2023-02-26T06:53:37;101236.47;;;0.88;100.00
15487;BME280;7845;53.698;10.078;2023-02-26T06:56:03;101234.59;;;0.84;100.00
15487;BME280;7845;53.698;10.078;2023-02-26T06:58:29;101241.50;;;0.85;100.00
15487;BME280;7845;53.698;10.078;2023-02-26T07:00:54;101229.03;;;0.96;100.00
15487;BME280;7845;53.698;10.078;2023-02-26T07:03:21;101233.69;;;1.04;100.00
15487;BME280;7845;53.698;10.078;2023-02-26T07:05:46;101240.41;;;1.01;100.00
15487;BME280;7845;53.698;10.078;2023-02-26T07:08:12;101255.38;;;0.90;100.00
15487;BME280;7845;53.698;10.078;2023-02-26T07:10:40;101248.56;;;0.91;100.00
15487;BME280;7845;53.698;10.078;2023-02-26T07:13:07;101255.16;;;0.84;100.00
15487;BME280;7845;53.698;10.078;2023-02-26T07:15:32;101254.13;;;1.01;100.00
15487;BME280;7845;53.698;10.078;2023-02-26T07:17:59;101267.72;;;0.99;100.00
15487;BME280;7845;53.698;10.078;2023-02-26T07:20:25;101265.53;;;0.87;100.00
15487;BME280;7845;53.698;10.078;2023-02-26T07:22:51;101261.59;;;0.95;100.00
15487;BME280;7845;53.698;10.078;2023-02-26T07:25:16;101262.56;;;0.99;100.00
15487;BME280;7845;53.698;10.078;2023-02-26T07:27:43;101266.63;;;0.92;100.00
15487;BME280;7845;53.698;10.078;2023-02-26T07:30:09;101278.47;;;0.89;100.00
15487;BME280;7845;53.698;10.078;2023-02-26T07:32:35;101264.28;;;0.98;100.00
15487;BME280;7845;53.698;10.078;2023-02-26T07:35:00;101269.06;;;0.89;100.00
15487;BME280;7845;53.698;10.078;2023-02-26T07:37:26;101263.06;;;0.89;100.00
15487;BME280;7845;53.698;10.078;2023-02-26T07:39:53;101257.50;;;1.00;100.00
15487;BME280;7845;53.698;10.078;2023-02-26T07:42:19;101270.03;;;0.93;100.00
15487;BME280;7845;53.698;10.078;2023-02-26T07:44:44;101260.19;;;1.03;100.00
15487;BME280;7845;53.698;10.078;2023-02-26T07:47:09;101262.38;;;1.17;100.00
15487;BME280;7845;53.698;10.078;2023-02-26T07:49:35;101262.22;;;1.12;100.00
15487;BME280;7845;53.698;10.078;2023-02-26T07:52:01;101264.69;;;1.09;100.00
15487;BME280;7845;53.698;10.078;2023-02-26T07:54:26;101271.97;;;1.21;100.00
15487;BME280;7845;53.698;10.078;2023-02-26T07:56:52;101270.19;;;1.18;100.00
15487;BME280;7845;53.698;10.078;2023-02-26T07:59:17;101271.41;;;1.28;100.00
15487;BME280;7845;53.698;10.078;2023-02-26T08:01:43;101286.53;;;1.20;100.00
15487;BME280;7845;53.698;10.078;2023-02-26T08:04:08;101277.53;;;1.31;100.00
15487;BME280;7845;53.698;10.078;2023-02-26T08:06:33;101270.28;;;1.43;100.00
15487;BME280;7845;53.698;10.078;2023-02-26T08:09:00;101279.91;;;1.49;100.00
15487;BME280;7845;53.698;10.078;2023-02-26T08:11:25;101280.06;;;1.53;100.00
15487;BME280;7845;53.698;10.078;2023-02-26T08:13:52;101284.66;;;1.62;100.00
15487;BME280;7845;53.698;10.078;2023-02-26T08:16:18;101286.69;;;1.71;100.00
15487;BME280;7845;53.698;10.078;2023-02-26T08:18:43;101294.41;;;1.71;100.00
15487;BME280;7845;53.698;10.078;2023-02-26T08:21:09;101303.13;;;1.74;100.00
15487;BME280;7845;53.698;10.078;2023-02-26T08:23:35;101304.59;;;1.91;100.00
15487;BME280;7845;53.698;10.078;2023-02-26T08:26:07;101318.41;;;1.93;100.00
15487;BME280;7845;53.698;10.078;2023-02-26T08:28:33;101330.59;;;1.99;100.00
15487;BME280;7845;53.698;10.078;2023-02-26T08:30:58;101333.97;;;1.96;100.00
15487;BME280;7845;53.698;10.078;2023-02-26T08:33:24;101344.28;;;1.98;100.00
15487;BME280;7845;53.698;10.078;2023-02-26T08:35:50;101348.16;;;2.09;100.00
15487;BME280;7845;53.698;10.078;2023-02-26T08:38:15;101358.47;;;2.10;100.00
15487;BME280;7845;53.698;10.078;2023-02-26T08:40:42;101369.69;;;2.12;100.00
15487;BME280;7845;53.698;10.078;2023-02-26T08:43:09;101385.59;;;2.24;100.00
15487;BME280;7845;53.698;10.078;2023-02-26T08:45:38;101398.63;;;2.29;100.00
15487;BME280;7845;53.698;10.078;2023-02-26T08:48:04;101413.25;;;2.30;100.00
15487;BME280;7845;53.698;10.078;2023-02-26T08:50:29;101408.53;;;2.42;100.00
15487;BME280;7845;53.698;10.078;2023-02-26T08:52:55;101413.69;;;2.42;100.00
15487;BME280;7845;53.698;10.078;2023-02-26T08:55:21;101413.09;;;2.49;100.00
15487;BME280;7845;53.698;10.078;2023-02-26T08:57:46;101418.66;;;2.61;100.00
15487;BME280;7845;53.698;10.078;2023-02-26T09:00:12;101416.97;;;2.62;100.00
15487;BME280;7845;53.698;10.078;2023-02-26T09:02:41;101434.38;;;2.69;100.00
15487;BME280;7845;53.698;10.078;2023-02-26T09:05:08;101448.91;;;2.67;100.00
15487;BME280;7845;53.698;10.078;2023-02-26T09:07:35;101474.88;;;2.71;100.00
15487;BME280;7845;53.698;10.078;2023-02-26T09:10:00;101506.38;;;2.88;100.00
15487;BME280;7845;53.698;10.078;2023-02-26T09:12:26;101516.31;;;3.01;100.00
15487;BME280;7845;53.698;10.078;2023-02-26T09:14:52;101542.94;;;3.02;100.00
15487;BME280;7845;53.698;10.078;2023-02-26T09:17:17;101569.00;;;3.09;100.00
15487;BME280;7845;53.698;10.078;2023-02-26T09:19:43;101586.81;;;3.27;100.00
15487;BME280;7845;53.698;10.078;2023-02-26T09:22:08;101616.56;;;3.17;100.00
15487;BME280;7845;53.698;10.078;2023-02-26T09:24:34;101635.72;;;3.24;100.00
15487;BME280;7845;53.698;10.078;2023-02-26T09:27:00;101634.59;;;3.16;100.00
15487;BME280;7845;53.698;10.078;2023-02-26T09:29:27;101640.28;;;3.31;100.00
15487;BME280;7845;53.698;10.078;2023-02-26T09:31:53;101649.09;;;3.38;100.00
15487;BME280;7845;53.698;10.078;2023-02-26T09:34:19;101632.34;;;3.50;100.00
15487;BME280;7845;53.698;10.078;2023-02-26T09:36:46;101639.72;;;3.40;100.00
15487;BME280;7845;53.698;10.078;2023-02-26T09:39:11;101656.84;;;3.38;100.00
15487;BME280;7845;53.698;10.078;2023-02-26T09:41:42;101656.69;;;3.33;100.00
15487;BME280;7845;53.698;10.078;2023-02-26T09:44:15;101654.31;;;3.39;100.00
15487;BME280;7845;53.698;10.078;2023-02-26T09:46:50;101652.06;;;3.48;100.00
15487;BME280;7845;53.698;10.078;2023-02-26T09:49:31;101650.00;;;3.63;100.00
15487;BME280;7845;53.698;10.078;2023-02-26T09:54:55;101646.88;;;3.97;100.00
15487;BME280;7845;53.698;10.078;2023-02-26T09:57:33;101651.16;;;3.97;100.00
15487;BME280;7845;53.698;10.078;2023-02-26T10:00:00;101653.97;;;4.31;100.00
15487;BME280;7845;53.698;10.078;2023-02-26T10:02:37;101656.25;;;4.48;100.00
15487;BME280;7845;53.698;10.078;2023-02-26T10:05:14;101675.38;;;4.54;100.00
15487;BME280;7845;53.698;10.078;2023-02-26T10:07:57;101691.47;;;4.72;100.00
15487;BME280;7845;53.698;10.078;2023-02-26T10:10:58;101709.28;;;4.63;100.00
15487;BME280;7845;53.698;10.078;2023-02-26T10:16:08;101733.28;;;4.59;100.00
15487;BME280;7845;53.698;10.078;2023-02-26T10:18:38;101735.16;;;4.64;100.00
15487;BME280;7845;53.698;10.078;2023-02-26T10:21:14;101753.44;;;4.43;100.00
15487;BME280;7845;53.698;10.078;2023-02-26T10:23:49;101747.50;;;4.73;100.00
15487;BME280;7845;53.698;10.078;2023-02-26T10:26:22;101755.13;;;4.68;100.00
15487;BME280;7845;53.698;10.078;2023-02-26T10:31:48;101751.56;;;4.93;100.00
15487;BME280;7845;53.698;10.078;2023-02-26T10:34:24;101764.88;;;5.05;100.00
15487;BME280;7845;53.698;10.078;2023-02-26T10:39:46;101763.28;;;4.80;100.00
15487;BME280;7845;53.698;10.078;2023-02-26T10:42:43;101775.72;;;4.65;100.00
15487;BME280;7845;53.698;10.078;2023-02-26T10:45:24;101757.16;;;4.52;100.00
15487;BME280;7845;53.698;10.078;2023-02-26T10:50:38;101765.31;;;4.64;100.00
15487;BME280;7845;53.698;10.078;2023-02-26T10:53:11;101744.94;;;5.01;100.00
15487;BME280;7845;53.698;10.078;2023-02-26T10:55:40;101755.66;;;5.13;100.00
15487;BME280;7845;53.698;10.078;2023-02-26T10:58:16;101765.69;;;5.02;100.00
15487;BME280;7845;53.698;10.078;2023-02-26T11:00:48;101787.13;;;5.27;100.00
15487;BME280;7845;53.698;10.078;2023-02-26T11:03:21;101798.00;;;5.43;100.00
15487;BME280;7845;53.698;10.078;2023-02-26T11:05:47;101805.25;;;5.55;100.00
15487;BME280;7845;53.698;10.078;2023-02-26T11:08:35;101822.78;;;5.65;100.00
15487;BME280;7845;53.698;10.078;2023-02-26T11:11:03;101808.44;;;5.76;100.00
15487;BME280;7845;53.698;10.078;2023-02-26T11:13:31;101818.97;;;5.82;100.00
15487;BME280;7845;53.698;10.078;2023-02-26T11:16:02;101835.56;;;5.87;100.00
15487;BME280;7845;53.698;10.078;2023-02-26T11:18:43;101856.09;;;5.83;100.00
15487;BME280;7845;53.698;10.078;2023-02-26T11:21:37;101860.28;;;5.78;100.00
15487;BME280;7845;53.698;10.078;2023-02-26T11:24:42;101852.25;;;5.69;100.00
15487;BME280;7845;53.698;10.078;2023-02-26T11:27:16;101854.63;;;5.61;100.00
15487;BME280;7845;53.698;10.078;2023-02-26T11:29:55;101838.91;;;5.55;100.00
15487;BME280;7845;53.698;10.078;2023-02-26T11:32:28;101828.63;;;5.58;100.00
15487;BME280;7845;53.698;10.078;2023-02-26T11:34:55;101833.91;;;5.33;100.00
15487;BME280;7845;53.698;10.078;2023-02-26T11:37:53;101827.22;;;5.41;100.00
15487;BME280;7845;53.698;10.078;2023-02-26T11:40:47;101828.44;;;5.52;100.00
15487;BME280;7845;53.698;10.078;2023-02-26T11:43:17;101824.63;;;5.69;100.00
15487;BME280;7845;53.698;10.078;2023-02-26T11:45:47;101821.47;;;5.79;100.00
15487;BME280;7845;53.698;10.078;2023-02-26T11:48:23;101819.47;;;5.71;100.00
15487;BME280;7845;53.698;10.078;2023-02-26T11:50:58;101826.59;;;5.78;100.00
15487;BME280;7845;53.698;10.078;2023-02-26T11:53:36;101821.16;;;5.97;100.00
15487;BME280;7845;53.698;10.078;2023-02-26T11:56:13;101821.19;;;5.98;100.00
15487;BME280;7845;53.698;10.078;2023-02-26T11:58:42;101819.13;;;5.87;100.00
15487;BME280;7845;53.698;10.078;2023-02-26T12:01:12;101815.34;;;5.76;100.00
15487;BME280;7845;53.698;10.078;2023-02-26T12:03:44;101796.22;;;6.02;100.00
15487;BME280;7845;53.698;10.078;2023-02-26T12:06:29;101792.28;;;6.16;100.00
15487;BME280;7845;53.698;10.078;2023-02-26T12:08:55;101783.22;;;6.33;100.00
15487;BME280;7845;53.698;10.078;2023-02-26T12:14:59;101789.50;;;6.41;100.00
15487;BME280;7845;53.698;10.078;2023-02-26T12:17:38;101789.09;;;6.59;100.00
15487;BME280;7845;53.698;10.078;2023-02-26T12:23:05;101806.03;;;6.46;100.00
15487;BME280;7845;53.698;10.078;2023-02-26T12:25:42;101835.22;;;6.72;100.00
15487;BME280;7845;53.698;10.078;2023-02-26T12:31:24;101850.25;;;6.51;100.00
15487;BME280;7845;53.698;10.078;2023-02-26T12:39:35;101866.72;;;6.22;100.00
15487;BME280;7845;53.698;10.078;2023-02-26T12:42:28;101871.75;;;5.86;100.00
15487;BME280;7845;53.698;10.078;2023-02-26T12:45:22;101870.00;;;6.15;100.00
15487;BME280;7845;53.698;10.078;2023-02-26T12:50:57;101882.63;;;6.34;100.00
15487;BME280;7845;53.698;10.078;2023-02-26T12:53:34;101874.69;;;6.28;100.00
15487;BME280;7845;53.698;10.078;2023-02-26T12:59:14;101890.47;;;6.35;100.00
15487;BME280;7845;53.698;10.078;2023-02-26T13:15:57;101888.53;;;6.28;100.00
15487;BME280;7845;53.698;10.078;2023-02-26T13:21:04;101886.47;;;6.17;100.00
15487;BME280;7845;53.698;10.078;2023-02-26T13:23:58;101892.50;;;5.86;100.00
15487;BME280;7845;53.698;10.078;2023-02-26T13:26:28;101897.28;;;6.02;100.00
15487;BME280;7845;53.698;10.078;2023-02-26T13:29:18;101886.94;;;6.33;100.00
15487;BME280;7845;53.698;10.078;2023-02-26T13:31:56;101888.06;;;6.11;100.00
15487;BME280;7845;53.698;10.078;2023-02-26T13:34:37;101882.81;;;6.08;100.00
15487;BME280;7845;53.698;10.078;2023-02-26T13:37:05;101882.13;;;6.16;100.00
15487;BME280;7845;53.698;10.078;2023-02-26T13:40:05;101880.75;;;6.28;100.00
15487;BME280;7845;53.698;10.078;2023-02-26T13:42:47;101882.47;;;6.28;100.00
15487;BME280;7845;53.698;10.078;2023-02-26T13:45:30;101882.06;;;6.45;100.00
15487;BME280;7845;53.698;10.078;2023-02-26T13:51:29;101920.66;;;6.03;100.00
15487;BME280;7845;53.698;10.078;2023-02-26T14:01:51;101921.50;;;6.34;100.00
15487;BME280;7845;53.698;10.078;2023-02-26T14:06:44;101924.19;;;6.37;100.00
15487;BME280;7845;53.698;10.078;2023-02-26T14:17:17;101968.41;;;6.41;100.00
15487;BME280;7845;53.698;10.078;2023-02-26T14:19:40;101978.72;;;6.10;100.00
15487;BME280;7845;53.698;10.078;2023-02-26T14:22:33;101986.47;;;6.08;100.00
15487;BME280;7845;53.698;10.078;2023-02-26T14:27:49;101971.81;;;6.39;100.00
15487;BME280;7845;53.698;10.078;2023-02-26T14:30:17;101975.31;;;6.11;100.00
15487;BME280;7845;53.698;10.078;2023-02-26T14:35:28;101971.66;;;6.04;100.00
15487;BME280;7845;53.698;10.078;2023-02-26T14:37:58;101972.03;;;5.88;100.00
15487;BME280;7845;53.698;10.078;2023-02-26T14:40:28;101963.59;;;5.95;100.00
15487;BME280;7845;53.698;10.078;2023-02-26T14:42:58;101951.06;;;6.09;100.00
15487;BME280;7845;53.698;10.078;2023-02-26T14:45:31;101943.88;;;6.00;100.00
15487;BME280;7845;53.698;10.078;2023-02-26T14:47:58;101940.63;;;6.07;100.00
15487;BME280;7845;53.698;10.078;2023-02-26T14:50:36;101961.50;;;5.84;100.00
15487;BME280;7845;53.698;10.078;2023-02-26T14:53:37;101938.41;;;5.91;100.00
15487;BME280;7845;53.698;10.078;2023-02-26T14:56:25;101933.03;;;6.13;100.00
15487;BME280;7845;53.698;10.078;2023-02-26T15:02:29;101935.09;;;6.25;100.00
15487;BME280;7845;53.698;10.078;2023-02-26T15:07:51;101933.47;;;6.29;100.00
15487;BME280;7845;53.698;10.078;2023-02-26T15:16:35;101964.41;;;5.94;100.00
15487;BME280;7845;53.698;10.078;2023-02-26T15:19:17;101964.03;;;6.09;100.00
15487;BME280;7845;53.698;10.078;2023-02-26T15:24:38;101959.59;;;6.06;100.00
15487;BME280;7845;53.698;10.078;2023-02-26T15:27:06;101970.47;;;5.93;100.00